UAL1535 KRDU-KIAD
Flight info
| Callsign | UAL1535 |
|---|---|
| Flight time | N/A |
| Altitude | 27000 |
| Route | OXFRD5 CARML DORRN CAVLR6 |
| Aircraft | B738/M-SDE2E3FGHIRWXY/LB1 |
Departure
| Time | 2026-05-07 00:55 |
|---|---|
| Airport | Raleigh-Durham International Airport (KRDU) |
Arrival
| Time | N/A |
|---|---|
| Airport | Washington Dulles International Airport (KIAD) |
| Time | Latitude | Longitude | Altitude | Speed | Heading |
|---|---|---|---|---|---|
| 2026-05-07 00:24 | 35.87532 | -78.79554 | 381 ft | 0 kts | 335° |
| 2026-05-07 00:32 | 35.87528 | -78.79552 | 381 ft | 2 kts | 319° |
| 2026-05-07 00:33 | 35.87521 | -78.79540 | 381 ft | 0 kts | 286° |
| 2026-05-07 00:33 | 35.87519 | -78.79522 | 382 ft | 2 kts | 263° |
| 2026-05-07 00:33 | 35.87523 | -78.79502 | 383 ft | 2 kts | 251° |
| 2026-05-07 00:33 | 35.87529 | -78.79483 | 383 ft | 2 kts | 243° |
| 2026-05-07 00:34 | 35.87537 | -78.79466 | 384 ft | 2 kts | 233° |
| 2026-05-07 00:34 | 35.87540 | -78.79461 | 384 ft | 0 kts | 228° |
| 2026-05-07 00:36 | 35.87539 | -78.79463 | 384 ft | 1 kts | 228° |
| 2026-05-07 00:36 | 35.87527 | -78.79477 | 383 ft | 4 kts | 224° |
| 2026-05-07 00:37 | 35.87501 | -78.79510 | 382 ft | 7 kts | 226° |
| 2026-05-07 00:37 | 35.87490 | -78.79523 | 382 ft | 2 kts | 224° |
| 2026-05-07 00:37 | 35.87472 | -78.79545 | 381 ft | 5 kts | 224° |
| 2026-05-07 00:37 | 35.87441 | -78.79585 | 380 ft | 8 kts | 225° |
| 2026-05-07 00:38 | 35.87415 | -78.79656 | 379 ft | 11 kts | 277° |
| 2026-05-07 00:38 | 35.87471 | -78.79736 | 376 ft | 14 kts | 317° |
| 2026-05-07 00:38 | 35.87552 | -78.79770 | 376 ft | 14 kts | 33° |
| 2026-05-07 00:38 | 35.87617 | -78.79691 | 378 ft | 12 kts | 45° |
| 2026-05-07 00:39 | 35.87653 | -78.79646 | 380 ft | 5 kts | 45° |
| 2026-05-07 00:39 | 35.87674 | -78.79621 | 381 ft | 4 kts | 45° |
| 2026-05-07 00:39 | 35.87695 | -78.79596 | 382 ft | 4 kts | 45° |
| 2026-05-07 00:39 | 35.87716 | -78.79570 | 382 ft | 5 kts | 45° |
| 2026-05-07 00:40 | 35.87764 | -78.79510 | 383 ft | 13 kts | 45° |
| 2026-05-07 00:40 | 35.87837 | -78.79420 | 387 ft | 16 kts | 45° |
| 2026-05-07 00:40 | 35.87918 | -78.79320 | 389 ft | 18 kts | 45° |
| 2026-05-07 00:40 | 35.87991 | -78.79229 | 390 ft | 10 kts | 44° |
| 2026-05-07 00:41 | 35.88036 | -78.79174 | 391 ft | 9 kts | 45° |
| 2026-05-07 00:41 | 35.88081 | -78.79118 | 392 ft | 9 kts | 45° |
| 2026-05-07 00:41 | 35.88124 | -78.79064 | 391 ft | 9 kts | 44° |
| 2026-05-07 00:41 | 35.88168 | -78.79047 | 391 ft | 6 kts | 348° |
| 2026-05-07 00:42 | 35.88207 | -78.79040 | 391 ft | 6 kts | 41° |
| 2026-05-07 00:42 | 35.88222 | -78.78960 | 391 ft | 18 kts | 71° |
| 2026-05-07 00:42 | 35.88303 | -78.78839 | 394 ft | 18 kts | 45° |
| 2026-05-07 00:42 | 35.88398 | -78.78721 | 394 ft | 20 kts | 45° |
| 2026-05-07 00:43 | 35.88495 | -78.78601 | 397 ft | 20 kts | 45° |
| 2026-05-07 00:43 | 35.88574 | -78.78504 | 401 ft | 10 kts | 45° |
| 2026-05-07 00:43 | 35.88592 | -78.78482 | 402 ft | 0 kts | 45° |
| 2026-05-07 00:44 | 35.88615 | -78.78454 | 400 ft | 11 kts | 45° |
| 2026-05-07 00:44 | 35.88671 | -78.78384 | 402 ft | 11 kts | 46° |
| 2026-05-07 00:44 | 35.88745 | -78.78292 | 403 ft | 19 kts | 45° |
| 2026-05-07 00:44 | 35.88838 | -78.78178 | 406 ft | 19 kts | 45° |
| 2026-05-07 00:45 | 35.88929 | -78.78066 | 406 ft | 18 kts | 45° |
| 2026-05-07 00:45 | 35.88991 | -78.77936 | 407 ft | 17 kts | 72° |
| 2026-05-07 00:45 | 35.89047 | -78.77840 | 409 ft | 6 kts | 45° |
| 2026-05-07 00:45 | 35.89077 | -78.77803 | 409 ft | 9 kts | 45° |
| 2026-05-07 00:46 | 35.89131 | -78.77736 | 411 ft | 11 kts | 45° |
| 2026-05-07 00:46 | 35.89156 | -78.77706 | 412 ft | 0 kts | 45° |
| 2026-05-07 00:46 | 35.89160 | -78.77700 | 409 ft | 0 kts | 45° |
| 2026-05-07 00:47 | 35.89161 | -78.77699 | 409 ft | 0 kts | 45° |
| 2026-05-07 00:47 | 35.89165 | -78.77694 | 411 ft | 2 kts | 45° |
| 2026-05-07 00:48 | 35.89169 | -78.77689 | 413 ft | 0 kts | 45° |
| 2026-05-07 00:48 | 35.89170 | -78.77688 | 413 ft | 2 kts | 45° |
| 2026-05-07 00:49 | 35.89205 | -78.77654 | 413 ft | 7 kts | 24° |
| 2026-05-07 00:49 | 35.89247 | -78.77664 | 415 ft | 5 kts | 322° |
| 2026-05-07 00:49 | 35.89259 | -78.77677 | 417 ft | 2 kts | 318° |
| 2026-05-07 00:49 | 35.89264 | -78.77682 | 417 ft | 0 kts | 316° |
| 2026-05-07 00:50 | 35.89267 | -78.77686 | 417 ft | 2 kts | 316° |
| 2026-05-07 00:50 | 35.89271 | -78.77690 | 412 ft | 1 kts | 315° |
| 2026-05-07 00:51 | 35.89274 | -78.77694 | 413 ft | 1 kts | 316° |
| 2026-05-07 00:52 | 35.89281 | -78.77703 | 417 ft | 7 kts | 316° |
| 2026-05-07 00:53 | 35.89302 | -78.77728 | 418 ft | 0 kts | 315° |
| 2026-05-07 00:53 | 35.89302 | -78.77729 | 418 ft | 1 kts | 315° |
| 2026-05-07 00:53 | 35.89359 | -78.77819 | 418 ft | 17 kts | 284° |
| 2026-05-07 00:54 | 35.89341 | -78.77866 | 416 ft | 1 kts | 221° |
| 2026-05-07 00:54 | 35.89329 | -78.77878 | 414 ft | 0 kts | 223° |
| 2026-05-07 00:54 | 35.89328 | -78.77879 | 414 ft | 0 kts | 223° |
| 2026-05-07 00:55 | 35.89246 | -78.77978 | 412 ft | 55 kts | 225° |
| 2026-05-07 00:55 | 35.88757 | -78.78580 | 404 ft | 141 kts | 225° |
| 2026-05-07 00:55 | 35.87966 | -78.79542 | 931 ft | 171 kts | 226° |
| 2026-05-07 00:55 | 35.87077 | -78.80645 | 1759 ft | 189 kts | 226° |
| 2026-05-07 00:56 | 35.86148 | -78.81824 | 2556 ft | 194 kts | 227° |
| 2026-05-07 00:56 | 35.85140 | -78.83042 | 2965 ft | 211 kts | 225° |
| 2026-05-07 00:56 | 35.84045 | -78.84304 | 3535 ft | 218 kts | 225° |
| 2026-05-07 00:56 | 35.82902 | -78.85585 | 4119 ft | 231 kts | 225° |
| 2026-05-07 00:57 | 35.81699 | -78.86969 | 4773 ft | 239 kts | 234° |
| 2026-05-07 00:57 | 35.81090 | -78.88848 | 5509 ft | 243 kts | 268° |
| 2026-05-07 00:57 | 35.81550 | -78.90854 | 6355 ft | 252 kts | 300° |
| 2026-05-07 00:57 | 35.82702 | -78.92511 | 7196 ft | 258 kts | 309° |
| 2026-05-07 00:58 | 35.84123 | -78.93925 | 7948 ft | 273 kts | 330° |
| 2026-05-07 00:58 | 35.86058 | -78.94252 | 8732 ft | 296 kts | 3° |
| 2026-05-07 00:58 | 35.87987 | -78.93225 | 9530 ft | 312 kts | 31° |
| 2026-05-07 00:58 | 35.89793 | -78.91705 | 10256 ft | 317 kts | 27° |
| 2026-05-07 00:59 | 35.93882 | -78.88794 | 10717 ft | 362 kts | 24° |
| 2026-05-07 00:59 | 35.96132 | -78.87286 | 11225 ft | 372 kts | 24° |
| 2026-05-07 00:59 | 35.98420 | -78.85768 | 11819 ft | 373 kts | 24° |
| 2026-05-07 01:00 | 36.00715 | -78.84252 | 11968 ft | 374 kts | 23° |
| 2026-05-07 01:00 | 36.03012 | -78.82738 | 11994 ft | 374 kts | 23° |
| 2026-05-07 01:00 | 36.05303 | -78.81230 | 11985 ft | 372 kts | 23° |
| 2026-05-07 01:00 | 36.07586 | -78.79728 | 11985 ft | 371 kts | 23° |
| 2026-05-07 01:01 | 36.09862 | -78.78229 | 11999 ft | 370 kts | 23° |
| 2026-05-07 01:01 | 36.12137 | -78.76732 | 11992 ft | 370 kts | 23° |
| 2026-05-07 01:01 | 36.14406 | -78.75237 | 12003 ft | 370 kts | 23° |
| 2026-05-07 01:01 | 36.16684 | -78.73736 | 12006 ft | 371 kts | 23° |
| 2026-05-07 01:02 | 36.18962 | -78.72233 | 12000 ft | 371 kts | 23° |
| 2026-05-07 01:02 | 36.21213 | -78.70747 | 11995 ft | 372 kts | 24° |
| 2026-05-07 01:02 | 36.23495 | -78.69239 | 11988 ft | 373 kts | 23° |
| 2026-05-07 01:02 | 36.25786 | -78.67724 | 11989 ft | 373 kts | 23° |
| 2026-05-07 01:03 | 36.28072 | -78.66211 | 11995 ft | 373 kts | 24° |
| 2026-05-07 01:03 | 36.30362 | -78.64695 | 11994 ft | 373 kts | 24° |
| 2026-05-07 01:03 | 36.32651 | -78.63179 | 11994 ft | 373 kts | 23° |
| 2026-05-07 01:03 | 36.34943 | -78.61660 | 11992 ft | 373 kts | 23° |
| 2026-05-07 01:04 | 36.37306 | -78.60398 | 11976 ft | 367 kts | 13° |
| 2026-05-07 01:04 | 36.39751 | -78.59540 | 11990 ft | 364 kts | 9° |
| 2026-05-07 01:04 | 36.42204 | -78.58749 | 11976 ft | 364 kts | 9° |
| 2026-05-07 01:04 | 36.44660 | -78.57930 | 12009 ft | 368 kts | 10° |
| 2026-05-07 01:05 | 36.47133 | -78.57070 | 12631 ft | 371 kts | 10° |
| 2026-05-07 01:05 | 36.49609 | -78.56191 | 13517 ft | 370 kts | 10° |
| 2026-05-07 01:05 | 36.52084 | -78.55304 | 14258 ft | 371 kts | 10° |
| 2026-05-07 01:05 | 36.54583 | -78.54409 | 14855 ft | 376 kts | 9° |
| 2026-05-07 01:06 | 36.57116 | -78.53500 | 15462 ft | 381 kts | 9° |
| 2026-05-07 01:06 | 36.59669 | -78.52583 | 16128 ft | 383 kts | 9° |
| 2026-05-07 01:06 | 36.62244 | -78.51656 | 16787 ft | 387 kts | 9° |
| 2026-05-07 01:06 | 36.64839 | -78.50722 | 17392 ft | 391 kts | 8° |
| 2026-05-07 01:07 | 36.67464 | -78.49777 | 18008 ft | 394 kts | 8° |
| 2026-05-07 01:07 | 36.70111 | -78.48823 | 18575 ft | 398 kts | 8° |
| 2026-05-07 01:07 | 36.72778 | -78.47862 | 19092 ft | 401 kts | 8° |
| 2026-05-07 01:07 | 36.75443 | -78.46673 | 19581 ft | 417 kts | 21° |
| 2026-05-07 01:08 | 36.77937 | -78.44749 | 20127 ft | 425 kts | 26° |
| 2026-05-07 01:08 | 36.80410 | -78.42703 | 20642 ft | 429 kts | 27° |
| 2026-05-07 01:08 | 36.82899 | -78.40620 | 21130 ft | 433 kts | 27° |
| 2026-05-07 01:08 | 36.85419 | -78.38520 | 21609 ft | 437 kts | 26° |
| 2026-05-07 01:09 | 36.87964 | -78.36417 | 22080 ft | 440 kts | 26° |
| 2026-05-07 01:09 | 36.90532 | -78.34310 | 22548 ft | 443 kts | 26° |
| 2026-05-07 01:09 | 36.93126 | -78.32192 | 22998 ft | 447 kts | 26° |
| 2026-05-07 01:09 | 36.95744 | -78.30060 | 23446 ft | 451 kts | 26° |
| 2026-05-07 01:10 | 36.98382 | -78.27913 | 23815 ft | 455 kts | 26° |
| 2026-05-07 01:10 | 37.01040 | -78.25748 | 24171 ft | 458 kts | 26° |
| 2026-05-07 01:10 | 37.03719 | -78.23563 | 24539 ft | 461 kts | 26° |
| 2026-05-07 01:10 | 37.06415 | -78.21361 | 24908 ft | 464 kts | 26° |
| 2026-05-07 01:11 | 37.09095 | -78.19171 | 25255 ft | 467 kts | 26° |
| 2026-05-07 01:11 | 37.11827 | -78.16936 | 25605 ft | 471 kts | 26° |
| 2026-05-07 01:11 | 37.14572 | -78.14687 | 26038 ft | 471 kts | 26° |
| 2026-05-07 01:11 | 37.17316 | -78.12436 | 26527 ft | 471 kts | 26° |
| 2026-05-07 01:12 | 37.20059 | -78.10184 | 26909 ft | 472 kts | 26° |
| 2026-05-07 01:12 | 37.22788 | -78.07940 | 26894 ft | 464 kts | 26° |
| 2026-05-07 01:12 | 37.25440 | -78.05750 | 26895 ft | 449 kts | 25° |
| 2026-05-07 01:12 | 37.27187 | -78.04309 | 26892 ft | 441 kts | 25° |
| 2026-05-07 01:13 | 37.29762 | -78.02196 | 26918 ft | 445 kts | 25° |
| 2026-05-07 01:13 | 37.32376 | -78.00057 | 26929 ft | 451 kts | 25° |
| 2026-05-07 01:13 | 37.34984 | -77.97914 | 26922 ft | 452 kts | 25° |
| 2026-05-07 01:13 | 37.37663 | -77.96090 | 26889 ft | 423 kts | 10° |
| 2026-05-07 01:14 | 37.40404 | -77.94882 | 26907 ft | 405 kts | 8° |
| 2026-05-07 01:14 | 37.43037 | -77.93779 | 26902 ft | 394 kts | 7° |
| 2026-05-07 01:14 | 37.45620 | -77.92693 | 26898 ft | 387 kts | 7° |
| 2026-05-07 01:14 | 37.48140 | -77.91602 | 26899 ft | 381 kts | 8° |
| 2026-05-07 01:15 | 37.50645 | -77.90506 | 26928 ft | 392 kts | 8° |
| 2026-05-07 01:15 | 37.53262 | -77.89351 | 26933 ft | 407 kts | 10° |
| 2026-05-07 01:15 | 37.55940 | -77.87956 | 26932 ft | 424 kts | 14° |
| 2026-05-07 01:15 | 37.58661 | -77.86364 | 26938 ft | 437 kts | 15° |
| 2026-05-07 01:16 | 37.61412 | -77.84728 | 26849 ft | 436 kts | 15° |
| 2026-05-07 01:16 | 37.64153 | -77.83131 | 26435 ft | 433 kts | 15° |
| 2026-05-07 01:16 | 37.66898 | -77.81571 | 25941 ft | 432 kts | 14° |
| 2026-05-07 01:16 | 37.69652 | -77.80044 | 25475 ft | 431 kts | 14° |
| 2026-05-07 01:17 | 37.72390 | -77.78537 | 25073 ft | 428 kts | 14° |
| 2026-05-07 01:17 | 37.75108 | -77.77037 | 24708 ft | 424 kts | 14° |
| 2026-05-07 01:17 | 37.77802 | -77.75546 | 24354 ft | 421 kts | 14° |
| 2026-05-07 01:17 | 37.80469 | -77.74066 | 24004 ft | 417 kts | 13° |
| 2026-05-07 01:18 | 37.83113 | -77.72597 | 23647 ft | 414 kts | 13° |
| 2026-05-07 01:18 | 37.85743 | -77.71134 | 23243 ft | 411 kts | 13° |
| 2026-05-07 01:18 | 37.88352 | -77.69680 | 22813 ft | 408 kts | 13° |
| 2026-05-07 01:18 | 37.90942 | -77.68236 | 22392 ft | 405 kts | 14° |
| 2026-05-07 01:19 | 37.93514 | -77.66799 | 21973 ft | 403 kts | 14° |
| 2026-05-07 01:19 | 37.96070 | -77.65371 | 21566 ft | 400 kts | 14° |
| 2026-05-07 01:19 | 37.98611 | -77.63952 | 21166 ft | 398 kts | 14° |
| 2026-05-07 01:19 | 38.01154 | -77.62533 | 20458 ft | 404 kts | 14° |
| 2026-05-07 01:20 | 38.03725 | -77.61097 | 19722 ft | 403 kts | 14° |
| 2026-05-07 01:20 | 38.06277 | -77.59651 | 19030 ft | 401 kts | 16° |
| 2026-05-07 01:20 | 38.08778 | -77.58089 | 18343 ft | 401 kts | 18° |
| 2026-05-07 01:20 | 38.11250 | -77.56479 | 17600 ft | 398 kts | 19° |
| 2026-05-07 01:21 | 38.13706 | -77.54889 | 16823 ft | 395 kts | 19° |
| 2026-05-07 01:21 | 38.16121 | -77.53343 | 16090 ft | 392 kts | 19° |
| 2026-05-07 01:21 | 38.18550 | -77.51793 | 15373 ft | 389 kts | 20° |
| 2026-05-07 01:21 | 38.20955 | -77.50257 | 14684 ft | 385 kts | 20° |
| 2026-05-07 01:22 | 38.23341 | -77.48731 | 14021 ft | 381 kts | 20° |
| 2026-05-07 01:22 | 38.25772 | -77.47501 | 13320 ft | 371 kts | 11° |
| 2026-05-07 01:22 | 38.28243 | -77.46629 | 12592 ft | 366 kts | 8° |
| 2026-05-07 01:22 | 38.30697 | -77.45832 | 11897 ft | 362 kts | 8° |
| 2026-05-07 01:23 | 38.33125 | -77.45039 | 11232 ft | 359 kts | 9° |
| 2026-05-07 01:23 | 38.35530 | -77.44231 | 10594 ft | 356 kts | 9° |
| 2026-05-07 01:23 | 38.37898 | -77.43414 | 10110 ft | 348 kts | 9° |
| 2026-05-07 01:23 | 38.40171 | -77.42613 | 10003 ft | 329 kts | 9° |
| 2026-05-07 01:24 | 38.42320 | -77.41851 | 9882 ft | 312 kts | 9° |
| 2026-05-07 01:24 | 38.44366 | -77.41126 | 9697 ft | 302 kts | 8° |